createdAt,value
2023-05-21T00:00:23.573Z,3.80
2023-05-21T00:04:29.757Z,2.63
2023-05-21T00:08:35.312Z,2.43
2023-05-21T00:12:41.918Z,2.20
2023-05-21T00:16:47.811Z,2.37
2023-05-21T00:20:53.782Z,2.33
2023-05-21T00:25:00.029Z,2.30
2023-05-21T00:29:05.519Z,1.80
2023-05-21T00:33:13.843Z,2.50
2023-05-21T00:37:19.464Z,2.37
2023-05-21T00:41:26.013Z,2.27
2023-05-21T00:45:31.523Z,2.53
2023-05-21T00:49:37.041Z,3.23
2023-05-21T00:53:43.097Z,3.07
2023-05-21T00:57:49.526Z,3.17
2023-05-21T01:01:56.729Z,2.53
2023-05-21T01:06:02.396Z,2.70
2023-05-21T01:10:10.651Z,2.80
2023-05-21T01:14:17.841Z,2.73
2023-05-21T01:18:23.883Z,3.53
2023-05-21T01:22:32.750Z,3.23
2023-05-21T01:26:38.996Z,2.70
2023-05-21T01:30:44.677Z,3.07
2023-05-21T01:35:05.616Z,2.77
2023-05-21T01:39:21.046Z,2.33
2023-05-21T01:43:29.953Z,3.27
2023-05-21T01:47:37.337Z,2.63
2023-05-21T01:51:43.343Z,3.03
2023-05-21T01:55:48.875Z,2.70
2023-05-21T01:59:55.245Z,2.90
2023-05-21T02:04:00.967Z,2.80
2023-05-21T02:08:08.464Z,3.10
2023-05-21T02:12:14.218Z,3.60
2023-05-21T02:16:20.041Z,3.33
2023-05-21T02:20:25.530Z,3.13
2023-05-21T02:24:31.386Z,3.50
2023-05-21T02:28:36.908Z,2.90
2023-05-21T02:32:43.630Z,3.07
2023-05-21T02:36:52.289Z,3.20
2023-05-21T02:40:57.809Z,3.20
2023-05-21T02:45:03.591Z,3.20
2023-05-21T02:49:09.169Z,3.80
2023-05-21T02:53:14.701Z,3.73
2023-05-21T02:57:20.623Z,3.77
2023-05-21T03:01:26.367Z,3.63
2023-05-21T03:05:31.912Z,3.43
2023-05-21T03:09:37.409Z,3.63
2023-05-21T03:13:43.174Z,3.40
2023-05-21T03:17:48.946Z,3.53
2023-05-21T03:21:56.477Z,3.20
2023-05-21T03:26:02.467Z,3.33
2023-05-21T03:30:09.459Z,4.00
2023-05-21T03:34:15.049Z,3.00
2023-05-21T03:38:20.539Z,3.37
2023-05-21T03:42:26.118Z,3.40
2023-05-21T03:46:32.557Z,3.40
2023-05-21T03:50:38.546Z,3.00
2023-05-21T03:54:44.084Z,3.20
2023-05-21T03:58:49.601Z,3.20
2023-05-21T04:02:55.260Z,3.40
2023-05-21T04:07:00.945Z,3.03
2023-05-21T04:11:06.445Z,3.03
2023-05-21T04:15:12.570Z,2.80
2023-05-21T04:19:18.072Z,3.60
2023-05-21T04:23:23.962Z,3.03
2023-05-21T04:27:29.873Z,3.73
2023-05-21T04:31:35.396Z,3.37
2023-05-21T04:35:44.559Z,3.17
2023-05-21T04:39:50.205Z,3.33
2023-05-21T04:43:55.689Z,3.37
2023-05-21T04:48:01.246Z,3.40
2023-05-21T04:52:08.481Z,3.40
2023-05-21T04:56:14.659Z,3.13
2023-05-21T05:00:21.449Z,3.60
2023-05-21T05:04:26.969Z,3.10
2023-05-21T05:08:32.461Z,3.30
2023-05-21T05:12:38.269Z,3.77
2023-05-21T05:16:43.791Z,3.00
2023-05-21T05:20:49.270Z,2.90
2023-05-21T05:24:54.762Z,3.90
2023-05-21T05:29:00.305Z,3.23
2023-05-21T05:33:05.896Z,2.87
2023-05-21T05:37:11.439Z,3.50
2023-05-21T05:41:16.923Z,3.43
2023-05-21T05:45:22.438Z,3.07
2023-05-21T05:49:27.923Z,3.20
2023-05-21T05:53:33.436Z,3.13
2023-05-21T05:57:38.958Z,3.50
2023-05-21T06:01:44.458Z,3.10
2023-05-21T06:05:50.222Z,3.70
2023-05-21T06:09:55.899Z,3.60
2023-05-21T06:14:01.782Z,3.73
2023-05-21T06:18:07.377Z,3.83
2023-05-21T06:22:12.904Z,3.70
2023-05-21T06:26:19.795Z,3.43
2023-05-21T06:30:25.294Z,3.53
2023-05-21T06:34:30.815Z,3.40
2023-05-21T06:38:36.339Z,3.03
2023-05-21T06:42:41.845Z,4.10
2023-05-21T06:46:47.348Z,3.40
2023-05-21T06:50:52.855Z,3.17
2023-05-21T06:54:58.439Z,4.17
2023-05-21T06:59:03.917Z,3.70
2023-05-21T07:03:10.132Z,3.30
2023-05-21T07:07:15.744Z,3.87
2023-05-21T07:11:21.552Z,3.17
2023-05-21T07:15:27.209Z,3.70
2023-05-21T07:19:32.857Z,3.70
2023-05-21T07:23:38.433Z,3.90
2023-05-21T07:27:43.930Z,3.57
2023-05-21T07:31:49.417Z,3.63
2023-05-21T07:35:54.910Z,3.70
2023-05-21T07:40:00.492Z,3.77
2023-05-21T07:44:06.187Z,4.23
2023-05-21T07:48:11.793Z,4.07
2023-05-21T07:52:17.333Z,3.47
2023-05-21T07:56:23.080Z,3.80
2023-05-21T08:00:28.615Z,4.10
2023-05-21T08:04:34.174Z,3.80
2023-05-21T08:08:39.695Z,3.80
2023-05-21T08:12:45.179Z,3.90
2023-05-21T08:16:51.062Z,4.40
2023-05-21T08:20:56.712Z,4.23
2023-05-21T08:25:02.227Z,3.83
2023-05-21T08:29:07.705Z,4.37
2023-05-21T08:33:13.973Z,4.17
2023-05-21T08:37:21.421Z,4.70
2023-05-21T08:41:28.741Z,3.87
2023-05-21T08:45:38.298Z,4.40
2023-05-21T08:49:45.730Z,4.67
2023-05-21T08:53:51.289Z,4.40
2023-05-21T08:57:56.883Z,4.37
2023-05-21T09:02:03.638Z,4.13
2023-05-21T09:06:14.201Z,4.67
2023-05-21T09:10:27.429Z,4.47
2023-05-21T09:14:33.313Z,4.30
2023-05-21T09:18:38.828Z,4.43
2023-05-21T09:22:46.826Z,4.33
2023-05-21T09:26:52.546Z,4.50
2023-05-21T09:31:03.997Z,4.03
2023-05-21T09:35:12.551Z,3.90
2023-05-21T09:39:30.563Z,3.67
2023-05-21T09:43:37.070Z,3.93
2023-05-21T09:47:44.157Z,4.30
2023-05-21T09:51:49.975Z,3.90
2023-05-21T09:55:58.303Z,4.37
2023-05-21T10:00:06.494Z,4.47
2023-05-21T10:04:12.543Z,4.20
2023-05-21T10:08:21.922Z,4.30
2023-05-21T10:12:30.576Z,4.67
2023-05-21T10:16:37.792Z,3.60
2023-05-21T10:20:43.656Z,3.77
2023-05-21T10:24:50.714Z,3.90
2023-05-21T10:29:00.041Z,3.90
2023-05-21T10:33:06.252Z,4.00
2023-05-21T10:37:13.505Z,4.83
2023-05-21T10:41:21.920Z,3.97
2023-05-21T10:45:55.570Z,4.27
2023-05-21T10:50:28.800Z,3.67
2023-05-21T10:54:40.135Z,5.30
2023-05-21T10:59:43.454Z,4.00
2023-05-21T11:03:49.669Z,3.93
2023-05-21T11:07:58.623Z,4.63
2023-05-21T11:12:04.927Z,4.70
2023-05-21T11:16:17.994Z,4.10
2023-05-21T11:20:23.548Z,4.50
2023-05-21T11:24:33.675Z,4.23
2023-05-21T11:28:39.170Z,4.10
2023-05-21T11:33:14.072Z,4.27
2023-05-21T11:37:22.346Z,4.93
2023-05-21T11:41:27.852Z,3.90
2023-05-21T11:45:33.573Z,4.50
2023-05-21T11:49:39.773Z,3.90
2023-05-21T11:53:46.335Z,4.10
2023-05-21T11:57:54.627Z,4.00
2023-05-21T12:02:00.490Z,3.87
2023-05-21T12:06:07.115Z,4.20
2023-05-21T12:10:13.326Z,4.40
2023-05-21T12:14:19.070Z,4.37
2023-05-21T12:18:25.966Z,4.27
2023-05-21T12:22:31.473Z,4.57
2023-05-21T12:26:37.044Z,4.37
2023-05-21T12:30:42.541Z,4.60
2023-05-21T12:34:54.889Z,3.80
2023-05-21T12:39:00.563Z,4.87
2023-05-21T12:43:06.963Z,4.37
2023-05-21T12:47:13.280Z,4.70
2023-05-21T12:51:19.362Z,4.70
2023-05-21T12:55:26.352Z,4.17
2023-05-21T12:59:57.015Z,4.73
2023-05-21T13:04:05.089Z,4.27
2023-05-21T13:08:11.293Z,4.70
2023-05-21T13:12:16.947Z,4.70
2023-05-21T13:16:23.716Z,4.80
2023-05-21T13:20:29.641Z,4.57
2023-05-21T13:24:35.156Z,4.53
2023-05-21T13:28:42.771Z,4.83
2023-05-21T13:32:49.090Z,4.10
2023-05-21T13:36:54.680Z,4.90
2023-05-21T13:41:00.171Z,5.10
2023-05-21T13:45:08.782Z,4.77
2023-05-21T13:49:14.353Z,4.20
2023-05-21T13:53:19.894Z,5.53
2023-05-21T13:57:27.023Z,5.07
2023-05-21T14:01:32.649Z,5.47
2023-05-21T14:05:38.500Z,5.10
2023-05-21T14:09:44.000Z,4.83
2023-05-21T14:13:49.529Z,4.90
2023-05-21T14:17:55.133Z,5.37
2023-05-21T14:22:00.732Z,5.80
2023-05-21T14:26:06.456Z,5.97
2023-05-21T14:30:12.218Z,5.87
2023-05-21T14:34:17.848Z,5.80
2023-05-21T14:38:23.425Z,4.53
2023-05-21T14:42:28.909Z,5.47
2023-05-21T14:46:34.555Z,5.83
2023-05-21T14:50:40.901Z,6.43
2023-05-21T14:54:46.423Z,5.50
2023-05-21T14:58:52.336Z,6.40
2023-05-21T15:02:58.144Z,6.00
2023-05-21T15:07:03.831Z,6.13
2023-05-21T15:11:11.502Z,5.73
2023-05-21T15:15:17.678Z,6.17
2023-05-21T15:19:23.361Z,6.60
2023-05-21T15:23:29.085Z,5.87
2023-05-21T15:27:35.268Z,6.17
2023-05-21T15:31:40.985Z,6.20
2023-05-21T15:35:46.651Z,6.77
2023-05-21T15:39:53.433Z,6.33
2023-05-21T15:43:58.957Z,7.50
2023-05-21T15:48:05.166Z,6.50
2023-05-21T15:52:10.733Z,5.83
2023-05-21T15:56:16.685Z,6.10
2023-05-21T16:00:22.151Z,5.80
2023-05-21T16:04:27.680Z,6.23
2023-05-21T16:08:33.405Z,6.20
2023-05-21T16:12:38.901Z,6.87
2023-05-21T16:16:44.657Z,7.20
2023-05-21T16:20:50.126Z,7.77
2023-05-21T16:24:56.313Z,7.10
2023-05-21T16:29:02.345Z,7.00
2023-05-21T16:33:08.106Z,7.00
2023-05-21T16:37:13.645Z,7.17
2023-05-21T16:41:19.182Z,7.20
2023-05-21T16:45:24.726Z,7.17
2023-05-21T16:49:30.300Z,6.90
2023-05-21T16:53:35.892Z,7.20
2023-05-21T16:57:41.378Z,6.70
2023-05-21T17:01:46.960Z,6.83
2023-05-21T17:05:53.060Z,6.77
2023-05-21T17:09:58.557Z,6.90
2023-05-21T17:14:04.054Z,7.20
2023-05-21T17:18:09.593Z,6.90
2023-05-21T17:22:15.151Z,7.63
2023-05-21T17:26:21.786Z,7.33
2023-05-21T17:30:27.354Z,7.10
2023-05-21T17:34:32.893Z,8.60
2023-05-21T17:38:38.402Z,7.20
2023-05-21T17:42:43.860Z,7.40
2023-05-21T17:46:50.819Z,7.80
2023-05-21T17:50:56.380Z,7.27
2023-05-21T17:55:02.093Z,7.37
2023-05-21T17:59:09.118Z,6.77
2023-05-21T18:03:14.712Z,7.57
2023-05-21T18:07:22.200Z,7.87
2023-05-21T18:11:27.741Z,7.20
2023-05-21T18:15:34.211Z,7.20
2023-05-21T18:19:39.823Z,7.10
2023-05-21T18:23:45.411Z,7.70
2023-05-21T18:27:52.129Z,6.53
2023-05-21T18:31:57.658Z,7.47
2023-05-21T18:36:03.402Z,7.17
2023-05-21T18:40:09.716Z,6.90
2023-05-21T18:44:15.209Z,7.33
2023-05-21T18:48:20.782Z,7.63
2023-05-21T18:52:26.532Z,7.23
2023-05-21T18:56:32.012Z,7.37
2023-05-21T19:00:39.603Z,8.17
2023-05-21T19:04:45.618Z,7.50
2023-05-21T19:08:52.946Z,8.20
2023-05-21T19:12:58.553Z,7.90
2023-05-21T19:17:04.194Z,7.60
2023-05-21T19:21:09.782Z,8.20
2023-05-21T19:25:15.405Z,7.57
2023-05-21T19:29:21.732Z,7.53
2023-05-21T19:33:27.304Z,7.90
2023-05-21T19:37:32.837Z,7.70
2023-05-21T19:41:38.326Z,7.47
2023-05-21T19:45:43.916Z,8.07
2023-05-21T19:49:49.491Z,7.47
2023-05-21T19:53:54.967Z,7.73
2023-05-21T19:58:00.611Z,8.33
2023-05-21T20:02:06.164Z,9.03
2023-05-21T20:06:12.314Z,8.10
2023-05-21T20:10:18.407Z,8.17
2023-05-21T20:14:23.894Z,8.73
2023-05-21T20:18:29.374Z,8.30
2023-05-21T20:22:34.891Z,8.63
2023-05-21T20:26:40.733Z,7.60
2023-05-21T20:30:57.382Z,8.40
2023-05-21T20:35:04.021Z,8.67
2023-05-21T20:39:10.118Z,7.97
2023-05-21T20:43:15.649Z,8.93
2023-05-21T20:47:23.349Z,8.20
2023-05-21T20:51:28.993Z,8.73
2023-05-21T20:55:34.896Z,8.97
2023-05-21T20:59:40.562Z,8.90
2023-05-21T21:03:46.424Z,8.47
2023-05-21T21:07:55.464Z,7.80
2023-05-21T21:12:06.228Z,9.40
2023-05-21T21:16:17.035Z,9.30
2023-05-21T21:20:22.554Z,8.60
2023-05-21T21:24:28.054Z,8.67
2023-05-21T21:28:33.637Z,9.23
2023-05-21T21:32:39.252Z,8.67
2023-05-21T21:36:44.812Z,9.47
2023-05-21T21:40:50.315Z,9.47
2023-05-21T21:44:55.808Z,8.23
2023-05-21T21:49:01.303Z,9.30
2023-05-21T21:53:06.819Z,8.73
2023-05-21T21:57:12.297Z,9.37
2023-05-21T22:01:17.978Z,9.33
2023-05-21T22:05:23.479Z,8.80
2023-05-21T22:09:29.122Z,9.60
2023-05-21T22:13:34.836Z,8.53
2023-05-21T22:17:40.482Z,8.83
2023-05-21T22:21:46.414Z,9.00
2023-05-21T22:25:52.210Z,9.17
2023-05-21T22:29:57.745Z,8.63
2023-05-21T22:34:03.290Z,8.53
2023-05-21T22:38:08.776Z,8.40
2023-05-21T22:42:14.249Z,9.53
2023-05-21T22:46:19.862Z,9.13
2023-05-21T22:50:29.386Z,8.83
2023-05-21T22:54:37.874Z,8.90
2023-05-21T22:58:43.430Z,9.30
2023-05-21T23:02:50.636Z,10.20
2023-05-21T23:06:57.827Z,8.80
2023-05-21T23:11:03.530Z,9.57
2023-05-21T23:15:09.997Z,9.40
2023-05-21T23:19:16.800Z,9.47
2023-05-21T23:23:22.400Z,10.57
2023-05-21T23:27:27.897Z,9.30
2023-05-21T23:31:33.483Z,9.63
2023-05-21T23:35:38.979Z,8.90
2023-05-21T23:39:48.115Z,9.37
2023-05-21T23:43:54.360Z,9.30
2023-05-21T23:47:59.928Z,8.37
2023-05-21T23:52:06.447Z,8.87
2023-05-21T23:56:12.032Z,8.90
